Flight Track Log - Related Links

Times and Time Zones

All times are in EDT time to prevent confusion due to time zone crossing. See the AWE1940 flight status page for this flight to view local times or setup timezone preferences in your user account.

Time Position Orientation Groundspeed Altitude Reporting Facility
EDT Latitude Longitude Course Direction KTS MPH feet Rate Location/Type
Mon 07:45:21 PM 29.9639 -95.3433 95° East 152 175 800  Level Houston Center
Mon 07:46:28 PM 29.9250 -95.2878 129° Southeast 225 259 2,800 1,698 Climbing Houston Center
Mon 07:47:07 PM 29.9036 -95.2581 130° Southeast 213 245 3,800 1,869 Climbing Houston Center
Mon 07:47:29 PM 29.8914 -95.2194 110° East 284 327 4,700 2,419 Climbing Houston Center
Mon 07:48:00 PM 29.9300 -94.9461 101° East  Level FlightAware Approximate
Mon 07:48:09 PM 29.8872 -95.1686 95° East 279 321 6,300  Level Houston Center
Mon 07:48:30 PM 29.8728 -95.1303 113° Southeast 290 334 7,600 2,806 Climbing Houston Center
Mon 07:49:00 PM 29.9125 -94.8166 95° East  Level FlightAware Approximate
Mon 07:49:11 PM 29.8578 -95.0808 109° East 290 334 9,200  Level Houston Center
Mon 07:49:31 PM 29.8492 -95.0367 103° East 295 339 10,300 1,619 Climbing Houston Center
Mon 07:50:00 PM 29.9016 -94.6861 95° East  Level FlightAware Approximate
Mon 07:50:14 PM 29.8517 -94.9831 87° East 313 360 10,900  Level Houston Center
Mon 07:51:14 PM 29.8542 -94.8575 89° East 358 412 12,300 1,672 Climbing Houston Center
Mon 07:52:16 PM 29.8567 -94.7406 89° East 388 447 14,300 2,226 Climbing Houston Center
Mon 07:53:18 PM 29.8589 -94.5831 89° East 407 468 16,900 2,032 Climbing Houston Center
Mon 07:54:20 PM 29.8611 -94.4475 89° East 421 484 18,500 1,561 Climbing Houston Center
Mon 07:55:21 PM 29.8631 -94.3072 89° East 436 502 20,100 1,659 Climbing Houston Center
Mon 07:56:23 PM 29.8581 -94.1569 92° East 446 513 21,900 1,500 Climbing Houston Center
Mon 07:57:25 PM 29.8561 -94.0103 91° East 457 526 23,200 1,210 Climbing Houston Center
Mon 07:58:27 PM 29.8731 -93.8636 82° East 467 537 24,400 1,258 Climbing Houston Center
Mon 07:59:29 PM 29.8897 -93.7142 83° East 473 544 25,800 1,220 Climbing Houston Center
Mon 08:00:30 PM 29.9058 -93.5622 83° East 480 552 26,900 1,268 Climbing Houston Center
Mon 08:01:32 PM 29.9231 -93.3778 84° East 489 563 28,400 1,452 Climbing Houston Center
Mon 08:02:34 PM 29.9378 -93.2261 84° East 484 557 29,900 1,258 Climbing Houston Center
Mon 08:03:36 PM 29.9533 -93.0775 83° East 475 547 31,000 1,024 Climbing Houston Center
Mon 08:04:37 PM 29.9697 -92.9272 83° East 475 547 32,000 976 Climbing Houston Center
Mon 08:05:39 PM 29.9817 -92.7783 85° East 471 542 33,000 484 Climbing Houston Center
Mon 08:06:41 PM 29.9942 -92.6019 85° East 463 533 33,000  Level Houston Center
Mon 08:07:43 PM 30.0097 -92.4567 83° East 459 528 33,000  Level Houston Center
Mon 08:08:45 PM 30.0392 -92.3131 77° East 462 532 33,000  Level Houston Center
Mon 08:09:47 PM 30.0661 -92.1694 78° East 460 529 33,000  Level Houston Center
Mon 08:10:49 PM 30.0933 -92.0258 78° East 459 528 33,000  Level Houston Center
Mon 08:11:51 PM 30.1200 -91.8839 78° East 455 524 33,000  Level Houston Center
Mon 08:12:53 PM 30.1522 -91.7131 78° East 456 525 33,000  Level Houston Center
Mon 08:13:54 PM 30.1781 -91.5656 79° East 453 521 33,000  Level Houston Center
Mon 08:14:56 PM 30.2042 -91.4242 78° East 452 520 33,000  Level Houston Center
Mon 08:15:58 PM 30.2322 -91.2822 77° East 453 521 33,000  Level Houston Center
Mon 08:17:00 PM 30.2556 -91.1419 79° East 448 516 33,000  Level Houston Center
Mon 08:18:02 PM 30.2814 -91.0014 78° East 448 516 33,000  Level Houston Center
Mon 08:19:04 PM 30.3067 -90.8603 78° East 449 517 33,000  Level Houston Center
Mon 08:20:06 PM 30.3319 -90.7181 78° East 452 520 33,000  Level Houston Center
Mon 08:21:08 PM 30.3636 -90.5472 78° East 452 520 33,000  Level Houston Center
Mon 08:22:10 PM 30.3875 -90.4050 79° East 450 518 33,000  Level Houston Center
Mon 08:23:12 PM 30.4119 -90.2619 79° East 453 521 33,000  Level Houston Center
Mon 08:24:14 PM 30.4381 -90.1194 78° East 452 520 33,000  Level Houston Center
Mon 08:25:16 PM 30.4625 -89.9744 79° East 453 521 33,000  Level Houston Center
Mon 08:26:18 PM 30.4889 -89.8261 78° East 460 529 33,000  Level Houston Center
Mon 08:27:19 PM 30.5144 -89.6756 79° East 466 536 33,000  Level Houston Center
Mon 08:28:21 PM 30.5375 -89.5278 80° East 464 534 33,000  Level Houston Center
Mon 08:29:23 PM 30.5611 -89.3814 79° East 461 531 33,000  Level Houston Center
Mon 08:30:25 PM 30.5894 -89.2050 79° East 462 532 33,000  Level Houston Center
Mon 08:31:27 PM 30.6189 -89.0622 76° East 457 526 33,000  Level Houston Center
Mon 08:32:29 PM 30.7067 -88.9586 45° Northeast 450 518 33,000  Level Houston Center
Mon 08:33:30 PM 30.7997 -88.8611 42° Northeast 454 522 33,000  Level Houston Center
Mon 08:34:32 PM 30.8931 -88.7628 42° Northeast 452 520 33,000  Level Houston Center
Mon 08:35:34 PM 30.9869 -88.6625 42° Northeast 454 522 33,000  Level Houston Center
Mon 08:36:36 PM 31.1000 -88.5436 42° Northeast 457 526 33,000  Level Houston Center
Mon 08:37:38 PM 31.1947 -88.4447 42° Northeast 458 527 33,000  Level Houston Center
Mon 08:38:39 PM 31.2928 -88.3414 42° Northeast 456 525 33,000  Level Houston Center
Mon 08:39:41 PM 31.3858 -88.2400 43° Northeast 452 520 33,000  Level Houston Center
Mon 08:40:43 PM 31.4792 -88.1389 43° Northeast 453 521 33,000  Level Houston Center
Mon 08:41:45 PM 31.5725 -88.0400 42° Northeast 453 521 33,000  Level Houston Center
Mon 08:42:44 PM 31.6728 -87.9356 42° Northeast 452 520 33,000  Level Atlanta Center
Mon 08:43:44 PM 31.7656 -87.8347 43° Northeast 452 520 33,000  Level Atlanta Center
Mon 08:44:44 PM 31.8583 -87.7333 43° Northeast 452 520 33,000  Level Atlanta Center
Mon 08:45:44 PM 31.9339 -87.6533 42° Northeast 452 520 33,000  Level Atlanta Center
Mon 08:46:44 PM 32.0331 -87.5372 45° Northeast 452 520 33,000  Level Atlanta Center
Mon 08:47:44 PM 32.1278 -87.4331 43° Northeast 457 526 33,000  Level Atlanta Center
Mon 08:48:44 PM 32.2206 -87.3286 44° Northeast 457 526 33,000  Level Atlanta Center
Mon 08:49:44 PM 32.3169 -87.2264 42° Northeast 457 526 33,000  Level Atlanta Center
Mon 08:50:44 PM 32.4094 -87.1217 44° Northeast 457 526 33,000  Level Atlanta Center
Mon 08:51:44 PM 32.5039 -87.0189 41° Northeast 457 526 33,000  Level Atlanta Center
Mon 08:52:00 PM 32.5202 -87.0061 41° Northeast  Level FlightAware Approximate
Mon 08:52:44 PM 32.5961 -86.9161 43° Northeast 457 526 33,000  Level Atlanta Center
Mon 08:53:44 PM 32.6925 -86.8081 43° Northeast 457 526 33,000  Level Atlanta Center
Mon 08:54:44 PM 32.7844 -86.7047 43° Northeast 458 527 33,000  Level Atlanta Center
Mon 08:55:44 PM 32.8764 -86.6036 43° Northeast 458 527 33,000  Level Atlanta Center
Mon 08:56:44 PM 32.9725 -86.4878 45° Northeast 463 533 33,000  Level Atlanta Center
Mon 08:57:44 PM 33.0706 -86.3839 42° Northeast 463 533 33,000  Level Atlanta Center
Mon 08:58:44 PM 33.1767 -86.2972 34° Northeast 458 527 33,000  Level Atlanta Center
Mon 08:59:44 PM 33.2828 -86.2031 37° Northeast 458 527 33,000  Level Atlanta Center
Mon 09:00:44 PM 33.3950 -86.1089 35° Northeast 458 527 33,000  Level Atlanta Center
Mon 09:01:44 PM 33.4986 -86.0217 35° Northeast 458 527 33,000  Level Atlanta Center
Mon 09:02:44 PM 33.6022 -85.9294 37° Northeast 458 527 33,000  Level Atlanta Center
Mon 09:03:44 PM 33.7058 -85.8417 35° Northeast 458 527 33,000  Level Atlanta Center
Mon 09:04:44 PM 33.8031 -85.7664 33° Northeast 458 527 33,000  Level Atlanta Center
Mon 09:05:44 PM 33.9086 -85.6783 35° Northeast 458 527 33,000  Level Atlanta Center
Mon 09:06:44 PM 33.9994 -85.5997 36° Northeast 458 527 33,000  Level Atlanta Center
Mon 09:07:44 PM 34.1239 -85.4892 36° Northeast 460 529 33,000  Level Atlanta Center
Mon 09:08:44 PM 34.2292 -85.3981 36° Northeast 455 524 33,000  Level Atlanta Center
Mon 09:09:44 PM 34.3344 -85.3067 36° Northeast 460 529 33,000  Level Atlanta Center
Mon 09:10:44 PM 34.4358 -85.2100 38° Northeast 454 522 33,000  Level Atlanta Center
Mon 09:11:44 PM 34.5472 -85.1206 33° Northeast 471 542 33,000  Level Atlanta Center
Mon 09:12:44 PM 34.6522 -85.0261 36° Northeast 471 542 33,000  Level Atlanta Center
Mon 09:13:44 PM 34.7531 -84.9361 36° Northeast 466 536 33,000  Level Atlanta Center
Mon 09:14:44 PM 34.8581 -84.8411 37° Northeast 461 531 33,000  Level Atlanta Center
Mon 09:15:44 PM 34.9653 -84.7458 36° Northeast 461 531 33,000  Level Atlanta Center
Mon 09:16:44 PM 35.0678 -84.6528 37° Northeast 461 531 33,000  Level Atlanta Center
Mon 09:17:44 PM 35.1747 -84.5597 35° Northeast 461 531 33,000  Level Atlanta Center
Mon 09:18:44 PM 35.2711 -84.4558 41° Northeast 456 525 33,000  Level Atlanta Center
Mon 09:19:44 PM 35.3550 -84.3317 50° Northeast 456 525 33,000  Level Atlanta Center
Mon 09:20:44 PM 35.4364 -84.2019 52° Northeast 466 536 33,000 -50 Level Atlanta Center
Mon 09:21:44 PM 35.5158 -84.0744 53° Northeast 471 542 32,900 -600 Descending Atlanta Center
Mon 09:22:44 PM 35.5994 -83.9494 51° Northeast 471 542 31,800 -1,300 Descending Atlanta Center
Mon 09:23:44 PM 35.6825 -83.8239 51° Northeast 471 542 30,300 -1,350 Descending Atlanta Center
Mon 09:24:44 PM 35.7636 -83.6958 52° Northeast 471 542 29,100 -850 Descending Atlanta Center
Mon 09:25:44 PM 35.8467 -83.5675 51° Northeast 471 542 28,600 -1,050 Descending Atlanta Center
Mon 09:26:44 PM 35.8983 -83.4208 66° East 455 524 27,000 -1,600 Descending Atlanta Center
Mon 09:27:44 PM 35.8953 -83.2594 91° East 449 517 25,400 -1,300 Descending Atlanta Center
Mon 09:28:44 PM 35.8858 -83.1186 95° East 449 517 24,400 -700 Descending Atlanta Center
Mon 09:29:44 PM 35.8847 -82.9675 90° East 444 511 24,000 -400 Descending Atlanta Center
Mon 09:31:00 PM 35.8792 -82.7837 92° East  Level FlightAware Approximate
Mon 09:31:44 PM 35.8461 -82.6528 92° East 439 505 23,200  Level Atlanta Center
Mon 09:32:44 PM 35.8153 -82.5203 106° East 445 512 21,600 -1,650 Descending Atlanta Center
Mon 09:33:44 PM 35.7819 -82.3672 105° East 437 503 19,900 -1,750 Descending Atlanta Center
Mon 09:34:44 PM 35.7506 -82.2194 105° East 437 503 18,100 -1,550 Descending Atlanta Center
Mon 09:35:44 PM 35.7239 -82.0972 105° East 425 489 16,800 -1,500 Descending Atlanta Center
Mon 09:36:44 PM 35.6922 -81.9600 106° East 412 474 15,100 -1,700 Descending Atlanta Center
Mon 09:37:44 PM 35.6631 -81.8303 105° East 406 467 13,400 -1,857 Descending Atlanta Center
Mon 09:38:08 PM 35.6492 -81.7669 105° East 392 451 12,500 -1,881 Descending Atlanta Center
Mon 09:38:51 PM 35.6267 -81.6728 106° East 382 440 11,300 -938 Descending Atlanta Center
Mon 09:39:44 PM 35.6061 -81.5892 107° East 365 420 11,000 -425 Descending Atlanta Center
Mon 09:40:44 PM 35.5544 -81.5064 127° Southeast 316 364 10,500 -1,128 Descending Atlanta Center
Mon 09:41:41 PM 35.5272 -81.3975 107° East 300 345 8,800 -1,475 Descending Atlanta Center
Mon 09:42:42 PM 35.5083 -81.3014 104° East 292 336 7,600 -885 Descending Atlanta Center
Mon 09:43:43 PM 35.5125 -81.2094 87° East 263 303 7,000 -738 Descending Atlanta Center
Mon 09:44:44 PM 35.5064 -81.1278 95° East 266 306 6,100 -992 Descending Atlanta Center
Mon 09:45:44 PM 35.5025 -81.0464 93° East 249 287 5,000 -550 Descending Atlanta Center
Mon 09:46:44 PM 35.4717 -80.9914 125° Southeast 197 227 5,000 -500 Level Atlanta Center
Mon 09:47:44 PM 35.4214 -80.9728 163° South 184 212 4,000 -769 Descending Atlanta Center
Mon 09:48:41 PM 35.3689 -80.9672 175° South 182 209 3,500 -763 Descending Atlanta Center
Mon 09:49:42 PM 35.3189 -80.9639 177° South 174 200 2,500 -836 Descending Atlanta Center
Mon 09:50:43 PM 35.2769 -80.9606 176° South 137 158 1,800 -689 Descending Atlanta Center

Login

Don't have an account? Register now (free) for customized features, flight alerts, and more!